sensor_id;sensor_type;location;lat;lon;timestamp;P1;durP1;ratioP1;P2;durP2;ratioP2
2854;SDS011;1435;49.472;10.940;2022-09-21T00:01:50;1.90;;;1.80;;
2854;SDS011;1435;49.472;10.940;2022-09-21T00:06:52;1.80;;;1.70;;
2854;SDS011;1435;49.472;10.940;2022-09-21T00:11:55;2.90;;;2.10;;
2854;SDS011;1435;49.472;10.940;2022-09-21T00:16:57;5.13;;;2.40;;
2854;SDS011;1435;49.472;10.940;2022-09-21T00:21:58;2.60;;;2.10;;
2854;SDS011;1435;49.472;10.940;2022-09-21T00:27:01;2.20;;;1.60;;
2854;SDS011;1435;49.472;10.940;2022-09-21T00:32:03;2.40;;;2.10;;
2854;SDS011;1435;49.472;10.940;2022-09-21T00:37:05;2.50;;;2.07;;
2854;SDS011;1435;49.472;10.940;2022-09-21T00:42:11;4.03;;;2.00;;
2854;SDS011;1435;49.472;10.940;2022-09-21T00:47:18;1.90;;;1.80;;
2854;SDS011;1435;49.472;10.940;2022-09-21T00:52:23;2.03;;;1.93;;
2854;SDS011;1435;49.472;10.940;2022-09-21T00:57:28;2.57;;;2.37;;
2854;SDS011;1435;49.472;10.940;2022-09-21T01:02:31;3.47;;;2.80;;
2854;SDS011;1435;49.472;10.940;2022-09-21T01:07:35;3.60;;;3.30;;
2854;SDS011;1435;49.472;10.940;2022-09-21T01:12:45;6.90;;;3.83;;
2854;SDS011;1435;49.472;10.940;2022-09-21T01:17:58;5.57;;;3.77;;
2854;SDS011;1435;49.472;10.940;2022-09-21T01:28:57;4.20;;;3.40;;
2854;SDS011;1435;49.472;10.940;2022-09-21T01:34:07;4.03;;;3.63;;
2854;SDS011;1435;49.472;10.940;2022-09-21T01:39:12;3.67;;;3.00;;
2854;SDS011;1435;49.472;10.940;2022-09-21T01:44:18;5.27;;;2.73;;
2854;SDS011;1435;49.472;10.940;2022-09-21T01:49:23;7.60;;;4.17;;
2854;SDS011;1435;49.472;10.940;2022-09-21T01:54:32;8.40;;;4.00;;
2854;SDS011;1435;49.472;10.940;2022-09-21T01:59:41;6.23;;;4.80;;
2854;SDS011;1435;49.472;10.940;2022-09-21T02:04:49;4.10;;;3.70;;
2854;SDS011;1435;49.472;10.940;2022-09-21T02:09:51;6.10;;;4.60;;
2854;SDS011;1435;49.472;10.940;2022-09-21T02:14:56;5.87;;;3.60;;
2854;SDS011;1435;49.472;10.940;2022-09-21T02:20:02;4.10;;;3.70;;
2854;SDS011;1435;49.472;10.940;2022-09-21T02:25:09;11.60;;;3.67;;
2854;SDS011;1435;49.472;10.940;2022-09-21T02:30:17;8.40;;;3.67;;
2854;SDS011;1435;49.472;10.940;2022-09-21T02:35:23;4.37;;;3.97;;
2854;SDS011;1435;49.472;10.940;2022-09-21T02:40:32;5.33;;;3.43;;
2854;SDS011;1435;49.472;10.940;2022-09-21T02:45:38;5.97;;;4.33;;
2854;SDS011;1435;49.472;10.940;2022-09-21T02:50:45;3.67;;;3.37;;
2854;SDS011;1435;49.472;10.940;2022-09-21T02:55:50;4.90;;;3.93;;
2854;SDS011;1435;49.472;10.940;2022-09-21T03:00:55;4.07;;;2.97;;
2854;SDS011;1435;49.472;10.940;2022-09-21T03:05:58;8.30;;;4.17;;
2854;SDS011;1435;49.472;10.940;2022-09-21T03:11:01;5.27;;;3.90;;
2854;SDS011;1435;49.472;10.940;2022-09-21T03:16:04;5.60;;;3.90;;
2854;SDS011;1435;49.472;10.940;2022-09-21T03:21:07;5.23;;;3.70;;
2854;SDS011;1435;49.472;10.940;2022-09-21T03:26:09;6.20;;;3.40;;
2854;SDS011;1435;49.472;10.940;2022-09-21T03:31:12;4.60;;;4.07;;
2854;SDS011;1435;49.472;10.940;2022-09-21T03:36:14;4.37;;;3.87;;
2854;SDS011;1435;49.472;10.940;2022-09-21T03:41:15;5.67;;;3.90;;
2854;SDS011;1435;49.472;10.940;2022-09-21T03:46:19;5.03;;;4.17;;
2854;SDS011;1435;49.472;10.940;2022-09-21T03:51:20;6.17;;;4.63;;
2854;SDS011;1435;49.472;10.940;2022-09-21T03:56:22;4.63;;;3.90;;
2854;SDS011;1435;49.472;10.940;2022-09-21T04:01:25;5.93;;;5.43;;
2854;SDS011;1435;49.472;10.940;2022-09-21T04:06:27;10.50;;;5.80;;
2854;SDS011;1435;49.472;10.940;2022-09-21T04:11:29;5.43;;;4.93;;
2854;SDS011;1435;49.472;10.940;2022-09-21T04:16:33;9.73;;;5.43;;
2854;SDS011;1435;49.472;10.940;2022-09-21T04:21:35;9.93;;;5.77;;
2854;SDS011;1435;49.472;10.940;2022-09-21T04:26:37;8.50;;;5.53;;
2854;SDS011;1435;49.472;10.940;2022-09-21T04:31:41;9.30;;;5.63;;
2854;SDS011;1435;49.472;10.940;2022-09-21T04:36:42;5.67;;;5.17;;
2854;SDS011;1435;49.472;10.940;2022-09-21T04:41:44;5.43;;;4.93;;
2854;SDS011;1435;49.472;10.940;2022-09-21T04:46:48;5.47;;;4.10;;
2854;SDS011;1435;49.472;10.940;2022-09-21T04:51:49;4.63;;;4.23;;
2854;SDS011;1435;49.472;10.940;2022-09-21T04:56:51;6.20;;;5.60;;
2854;SDS011;1435;49.472;10.940;2022-09-21T05:01:54;6.83;;;5.00;;
2854;SDS011;1435;49.472;10.940;2022-09-21T05:06:57;6.40;;;5.80;;
2854;SDS011;1435;49.472;10.940;2022-09-21T05:12:00;6.20;;;5.60;;
2854;SDS011;1435;49.472;10.940;2022-09-21T05:17:04;6.27;;;5.67;;
2854;SDS011;1435;49.472;10.940;2022-09-21T05:22:05;8.00;;;6.73;;
2854;SDS011;1435;49.472;10.940;2022-09-21T05:27:07;9.27;;;7.10;;
2854;SDS011;1435;49.472;10.940;2022-09-21T05:32:12;8.57;;;6.67;;
2854;SDS011;1435;49.472;10.940;2022-09-21T05:37:26;7.10;;;6.40;;
2854;SDS011;1435;49.472;10.940;2022-09-21T05:42:46;12.17;;;6.40;;
2854;SDS011;1435;49.472;10.940;2022-09-21T05:47:53;7.03;;;6.33;;
2854;SDS011;1435;49.472;10.940;2022-09-21T05:53:00;7.73;;;6.70;;
2854;SDS011;1435;49.472;10.940;2022-09-21T05:58:13;8.93;;;6.10;;
2854;SDS011;1435;49.472;10.940;2022-09-21T06:03:28;15.10;;;7.47;;
2854;SDS011;1435;49.472;10.940;2022-09-21T06:08:31;7.90;;;6.07;;
2854;SDS011;1435;49.472;10.940;2022-09-21T06:13:33;8.17;;;7.37;;
2854;SDS011;1435;49.472;10.940;2022-09-21T06:18:39;7.67;;;6.77;;
2854;SDS011;1435;49.472;10.940;2022-09-21T06:23:42;7.67;;;6.80;;
2854;SDS011;1435;49.472;10.940;2022-09-21T06:28:44;8.10;;;6.30;;
2854;SDS011;1435;49.472;10.940;2022-09-21T06:33:47;9.10;;;7.00;;
2854;SDS011;1435;49.472;10.940;2022-09-21T06:38:48;9.00;;;6.57;;
2854;SDS011;1435;49.472;10.940;2022-09-21T06:43:52;11.60;;;7.90;;
2854;SDS011;1435;49.472;10.940;2022-09-21T06:48:56;12.23;;;6.87;;
2854;SDS011;1435;49.472;10.940;2022-09-21T06:53:57;9.00;;;7.00;;
2854;SDS011;1435;49.472;10.940;2022-09-21T06:59:00;7.17;;;6.33;;
2854;SDS011;1435;49.472;10.940;2022-09-21T07:04:03;9.27;;;8.00;;
2854;SDS011;1435;49.472;10.940;2022-09-21T07:09:06;10.50;;;7.50;;
2854;SDS011;1435;49.472;10.940;2022-09-21T07:14:07;10.87;;;7.97;;
2854;SDS011;1435;49.472;10.940;2022-09-21T07:19:10;8.97;;;6.67;;
2854;SDS011;1435;49.472;10.940;2022-09-21T07:24:12;8.77;;;7.20;;
2854;SDS011;1435;49.472;10.940;2022-09-21T07:29:15;11.33;;;8.37;;
2854;SDS011;1435;49.472;10.940;2022-09-21T07:34:18;10.40;;;7.00;;
2854;SDS011;1435;49.472;10.940;2022-09-21T07:39:19;9.20;;;7.90;;
2854;SDS011;1435;49.472;10.940;2022-09-21T07:44:21;9.47;;;7.30;;
2854;SDS011;1435;49.472;10.940;2022-09-21T07:49:24;16.97;;;9.60;;
2854;SDS011;1435;49.472;10.940;2022-09-21T07:54:26;13.20;;;8.57;;
2854;SDS011;1435;49.472;10.940;2022-09-21T07:59:28;12.00;;;8.67;;
2854;SDS011;1435;49.472;10.940;2022-09-21T08:04:33;11.37;;;8.60;;
2854;SDS011;1435;49.472;10.940;2022-09-21T08:09:35;12.83;;;9.90;;
2854;SDS011;1435;49.472;10.940;2022-09-21T08:14:36;15.20;;;9.63;;
2854;SDS011;1435;49.472;10.940;2022-09-21T08:19:39;15.43;;;10.80;;
2854;SDS011;1435;49.472;10.940;2022-09-21T08:24:41;11.83;;;10.57;;
2854;SDS011;1435;49.472;10.940;2022-09-21T08:29:43;12.47;;;10.43;;
2854;SDS011;1435;49.472;10.940;2022-09-21T08:34:46;14.60;;;10.30;;
2854;SDS011;1435;49.472;10.940;2022-09-21T08:39:48;17.30;;;11.40;;
2854;SDS011;1435;49.472;10.940;2022-09-21T08:44:51;13.20;;;10.77;;
2854;SDS011;1435;49.472;10.940;2022-09-21T08:49:57;14.03;;;10.57;;
2854;SDS011;1435;49.472;10.940;2022-09-21T08:55:04;14.27;;;10.27;;
2854;SDS011;1435;49.472;10.940;2022-09-21T09:00:16;16.27;;;12.97;;
2854;SDS011;1435;49.472;10.940;2022-09-21T09:05:26;14.10;;;11.50;;
2854;SDS011;1435;49.472;10.940;2022-09-21T09:10:40;13.40;;;11.47;;
2854;SDS011;1435;49.472;10.940;2022-09-21T09:15:53;15.00;;;12.40;;
2854;SDS011;1435;49.472;10.940;2022-09-21T09:21:04;19.57;;;14.37;;
2854;SDS011;1435;49.472;10.940;2022-09-21T09:26:11;16.17;;;12.30;;
2854;SDS011;1435;49.472;10.940;2022-09-21T09:31:20;18.33;;;14.20;;
2854;SDS011;1435;49.472;10.940;2022-09-21T09:36:30;19.60;;;14.43;;
2854;SDS011;1435;49.472;10.940;2022-09-21T09:47:02;19.20;;;12.83;;
2854;SDS011;1435;49.472;10.940;2022-09-21T09:52:16;12.83;;;10.37;;
2854;SDS011;1435;49.472;10.940;2022-09-21T09:57:19;20.67;;;12.57;;
2854;SDS011;1435;49.472;10.940;2022-09-21T10:02:27;17.80;;;12.77;;
2854;SDS011;1435;49.472;10.940;2022-09-21T10:07:35;16.17;;;13.37;;
2854;SDS011;1435;49.472;10.940;2022-09-21T10:12:39;12.23;;;10.93;;
2854;SDS011;1435;49.472;10.940;2022-09-21T10:17:46;18.07;;;13.10;;
2854;SDS011;1435;49.472;10.940;2022-09-21T10:22:52;16.43;;;13.20;;
2854;SDS011;1435;49.472;10.940;2022-09-21T10:27:56;17.77;;;13.13;;
2854;SDS011;1435;49.472;10.940;2022-09-21T10:32:58;15.10;;;11.80;;
2854;SDS011;1435;49.472;10.940;2022-09-21T10:38:11;15.20;;;11.97;;
2854;SDS011;1435;49.472;10.940;2022-09-21T10:43:21;15.73;;;11.67;;
2854;SDS011;1435;49.472;10.940;2022-09-21T10:48:25;13.07;;;10.67;;
2854;SDS011;1435;49.472;10.940;2022-09-21T10:53:30;11.70;;;8.83;;
2854;SDS011;1435;49.472;10.940;2022-09-21T10:58:33;10.67;;;8.77;;
2854;SDS011;1435;49.472;10.940;2022-09-21T11:03:39;9.40;;;8.40;;
2854;SDS011;1435;49.472;10.940;2022-09-21T11:08:50;8.60;;;7.30;;
2854;SDS011;1435;49.472;10.940;2022-09-21T11:13:57;9.27;;;5.97;;
2854;SDS011;1435;49.472;10.940;2022-09-21T11:19:07;6.73;;;6.07;;
2854;SDS011;1435;49.472;10.940;2022-09-21T11:24:31;6.57;;;5.97;;
2854;SDS011;1435;49.472;10.940;2022-09-21T11:29:44;5.40;;;4.10;;
2854;SDS011;1435;49.472;10.940;2022-09-21T11:35:02;4.40;;;3.73;;
2854;SDS011;1435;49.472;10.940;2022-09-21T11:40:43;3.80;;;3.40;;
2854;SDS011;1435;49.472;10.940;2022-09-21T11:46:08;3.40;;;2.97;;
2854;SDS011;1435;49.472;10.940;2022-09-21T11:51:25;3.00;;;2.10;;
2854;SDS011;1435;49.472;10.940;2022-09-21T11:56:42;2.73;;;2.53;;
2854;SDS011;1435;49.472;10.940;2022-09-21T12:01:54;2.23;;;2.03;;
2854;SDS011;1435;49.472;10.940;2022-09-21T12:07:06;3.40;;;2.17;;
2854;SDS011;1435;49.472;10.940;2022-09-21T12:12:22;2.30;;;2.20;;
2854;SDS011;1435;49.472;10.940;2022-09-21T12:17:34;3.90;;;2.40;;
2854;SDS011;1435;49.472;10.940;2022-09-21T12:22:46;2.43;;;2.27;;
2854;SDS011;1435;49.472;10.940;2022-09-21T12:27:52;2.20;;;2.00;;
2854;SDS011;1435;49.472;10.940;2022-09-21T12:33:00;2.13;;;2.03;;
2854;SDS011;1435;49.472;10.940;2022-09-21T12:38:07;4.27;;;2.40;;
2854;SDS011;1435;49.472;10.940;2022-09-21T12:43:19;2.17;;;1.90;;
2854;SDS011;1435;49.472;10.940;2022-09-21T12:48:30;1.87;;;1.77;;
2854;SDS011;1435;49.472;10.940;2022-09-21T12:53:34;3.90;;;2.23;;
2854;SDS011;1435;49.472;10.940;2022-09-21T12:58:52;2.13;;;1.90;;
2854;SDS011;1435;49.472;10.940;2022-09-21T13:04:15;2.40;;;2.13;;
2854;SDS011;1435;49.472;10.940;2022-09-21T13:09:42;1.53;;;1.43;;
2854;SDS011;1435;49.472;10.940;2022-09-21T13:14:49;2.13;;;2.00;;
2854;SDS011;1435;49.472;10.940;2022-09-21T13:19:56;4.20;;;2.80;;
2854;SDS011;1435;49.472;10.940;2022-09-21T13:25:03;3.17;;;2.87;;
2854;SDS011;1435;49.472;10.940;2022-09-21T13:30:21;2.87;;;2.67;;
2854;SDS011;1435;49.472;10.940;2022-09-21T13:41:03;2.97;;;2.37;;
2854;SDS011;1435;49.472;10.940;2022-09-21T13:51:51;2.23;;;2.03;;
2854;SDS011;1435;49.472;10.940;2022-09-21T13:56:57;2.40;;;2.20;;
2854;SDS011;1435;49.472;10.940;2022-09-21T14:02:06;1.90;;;1.80;;
2854;SDS011;1435;49.472;10.940;2022-09-21T14:07:22;1.60;;;1.50;;
2854;SDS011;1435;49.472;10.940;2022-09-21T14:12:32;2.47;;;2.07;;
2854;SDS011;1435;49.472;10.940;2022-09-21T14:17:39;2.50;;;1.83;;
2854;SDS011;1435;49.472;10.940;2022-09-21T14:22:42;1.50;;;1.40;;
2854;SDS011;1435;49.472;10.940;2022-09-21T14:27:43;1.97;;;1.70;;
2854;SDS011;1435;49.472;10.940;2022-09-21T14:32:49;1.90;;;1.50;;
2854;SDS011;1435;49.472;10.940;2022-09-21T14:37:55;1.47;;;1.30;;
2854;SDS011;1435;49.472;10.940;2022-09-21T14:42:59;1.90;;;1.80;;
2854;SDS011;1435;49.472;10.940;2022-09-21T14:48:10;1.70;;;1.60;;
2854;SDS011;1435;49.472;10.940;2022-09-21T14:53:25;2.90;;;1.80;;
2854;SDS011;1435;49.472;10.940;2022-09-21T14:58:42;1.50;;;1.40;;
2854;SDS011;1435;49.472;10.940;2022-09-21T15:04:06;1.77;;;1.67;;
2854;SDS011;1435;49.472;10.940;2022-09-21T15:09:39;1.70;;;1.10;;
2854;SDS011;1435;49.472;10.940;2022-09-21T15:15:17;2.30;;;2.10;;
2854;SDS011;1435;49.472;10.940;2022-09-21T15:20:32;2.60;;;1.57;;
2854;SDS011;1435;49.472;10.940;2022-09-21T15:25:34;1.53;;;1.40;;
2854;SDS011;1435;49.472;10.940;2022-09-21T15:30:41;2.13;;;1.30;;
2854;SDS011;1435;49.472;10.940;2022-09-21T15:35:46;1.40;;;1.30;;
2854;SDS011;1435;49.472;10.940;2022-09-21T15:40:48;3.23;;;1.63;;
2854;SDS011;1435;49.472;10.940;2022-09-21T15:45:53;3.50;;;1.60;;
2854;SDS011;1435;49.472;10.940;2022-09-21T15:51:00;3.83;;;1.37;;
2854;SDS011;1435;49.472;10.940;2022-09-21T15:56:09;1.90;;;1.47;;
2854;SDS011;1435;49.472;10.940;2022-09-21T16:01:20;2.60;;;1.77;;
2854;SDS011;1435;49.472;10.940;2022-09-21T16:06:25;1.60;;;1.50;;
2854;SDS011;1435;49.472;10.940;2022-09-21T16:11:32;2.27;;;1.43;;
2854;SDS011;1435;49.472;10.940;2022-09-21T16:22:13;3.60;;;1.33;;
2854;SDS011;1435;49.472;10.940;2022-09-21T16:27:18;2.83;;;1.80;;
2854;SDS011;1435;49.472;10.940;2022-09-21T16:32:26;4.00;;;1.27;;
2854;SDS011;1435;49.472;10.940;2022-09-21T16:37:32;2.07;;;1.50;;
2854;SDS011;1435;49.472;10.940;2022-09-21T16:42:35;3.73;;;1.73;;
2854;SDS011;1435;49.472;10.940;2022-09-21T16:47:37;1.93;;;1.40;;
2854;SDS011;1435;49.472;10.940;2022-09-21T16:52:40;1.80;;;1.53;;
2854;SDS011;1435;49.472;10.940;2022-09-21T16:57:51;1.57;;;1.47;;
2854;SDS011;1435;49.472;10.940;2022-09-21T17:02:53;5.27;;;1.53;;
2854;SDS011;1435;49.472;10.940;2022-09-21T17:07:57;2.70;;;1.80;;
2854;SDS011;1435;49.472;10.940;2022-09-21T17:12:59;2.13;;;1.90;;
2854;SDS011;1435;49.472;10.940;2022-09-21T17:18:03;5.13;;;1.53;;
2854;SDS011;1435;49.472;10.940;2022-09-21T17:23:07;1.27;;;1.17;;
2854;SDS011;1435;49.472;10.940;2022-09-21T17:28:11;2.20;;;1.40;;
2854;SDS011;1435;49.472;10.940;2022-09-21T17:33:14;1.40;;;1.30;;
2854;SDS011;1435;49.472;10.940;2022-09-21T17:38:18;2.10;;;1.90;;
2854;SDS011;1435;49.472;10.940;2022-09-21T17:43:26;1.90;;;1.80;;
2854;SDS011;1435;49.472;10.940;2022-09-21T17:48:36;1.90;;;1.80;;
2854;SDS011;1435;49.472;10.940;2022-09-21T17:53:40;1.73;;;1.63;;
2854;SDS011;1435;49.472;10.940;2022-09-21T17:58:43;3.73;;;1.90;;
2854;SDS011;1435;49.472;10.940;2022-09-21T18:03:49;11.60;;;2.17;;
2854;SDS011;1435;49.472;10.940;2022-09-21T18:08:53;1.87;;;1.77;;
2854;SDS011;1435;49.472;10.940;2022-09-21T18:13:58;2.50;;;1.73;;
2854;SDS011;1435;49.472;10.940;2022-09-21T18:19:17;2.10;;;1.90;;
2854;SDS011;1435;49.472;10.940;2022-09-21T18:24:31;2.00;;;1.80;;
2854;SDS011;1435;49.472;10.940;2022-09-21T18:29:33;2.37;;;1.70;;
2854;SDS011;1435;49.472;10.940;2022-09-21T18:34:44;3.77;;;2.17;;
2854;SDS011;1435;49.472;10.940;2022-09-21T18:40:02;3.23;;;2.50;;
2854;SDS011;1435;49.472;10.940;2022-09-21T18:45:15;1.80;;;1.70;;
2854;SDS011;1435;49.472;10.940;2022-09-21T18:50:23;2.60;;;2.30;;
2854;SDS011;1435;49.472;10.940;2022-09-21T18:55:32;2.43;;;2.23;;
2854;SDS011;1435;49.472;10.940;2022-09-21T19:00:36;2.60;;;2.40;;
2854;SDS011;1435;49.472;10.940;2022-09-21T19:05:38;2.93;;;2.63;;
2854;SDS011;1435;49.472;10.940;2022-09-21T19:10:47;3.47;;;2.37;;
2854;SDS011;1435;49.472;10.940;2022-09-21T19:15:55;2.50;;;2.27;;
2854;SDS011;1435;49.472;10.940;2022-09-21T19:21:13;3.67;;;2.70;;
2854;SDS011;1435;49.472;10.940;2022-09-21T19:26:28;2.83;;;2.57;;
2854;SDS011;1435;49.472;10.940;2022-09-21T19:31:33;5.13;;;2.73;;
2854;SDS011;1435;49.472;10.940;2022-09-21T19:36:35;3.13;;;2.70;;
2854;SDS011;1435;49.472;10.940;2022-09-21T19:41:46;6.20;;;2.70;;
2854;SDS011;1435;49.472;10.940;2022-09-21T19:46:56;3.97;;;2.77;;
2854;SDS011;1435;49.472;10.940;2022-09-21T19:52:05;3.10;;;2.80;;
2854;SDS011;1435;49.472;10.940;2022-09-21T19:57:12;4.23;;;3.07;;
2854;SDS011;1435;49.472;10.940;2022-09-21T20:02:34;3.70;;;3.00;;
2854;SDS011;1435;49.472;10.940;2022-09-21T20:07:40;3.63;;;2.63;;
2854;SDS011;1435;49.472;10.940;2022-09-21T20:12:52;2.93;;;2.73;;
2854;SDS011;1435;49.472;10.940;2022-09-21T20:18:02;4.73;;;2.70;;
2854;SDS011;1435;49.472;10.940;2022-09-21T20:23:10;3.07;;;2.77;;
2854;SDS011;1435;49.472;10.940;2022-09-21T20:28:15;3.30;;;2.97;;
2854;SDS011;1435;49.472;10.940;2022-09-21T20:33:17;4.43;;;3.03;;
2854;SDS011;1435;49.472;10.940;2022-09-21T20:38:21;4.00;;;3.17;;
2854;SDS011;1435;49.472;10.940;2022-09-21T20:43:24;4.43;;;2.93;;
2854;SDS011;1435;49.472;10.940;2022-09-21T20:48:27;3.37;;;2.97;;
2854;SDS011;1435;49.472;10.940;2022-09-21T20:53:29;4.10;;;2.90;;
2854;SDS011;1435;49.472;10.940;2022-09-21T20:58:32;4.10;;;3.80;;
2854;SDS011;1435;49.472;10.940;2022-09-21T21:03:34;3.37;;;2.67;;
2854;SDS011;1435;49.472;10.940;2022-09-21T21:08:36;5.33;;;3.37;;
2854;SDS011;1435;49.472;10.940;2022-09-21T21:13:40;3.17;;;2.50;;
2854;SDS011;1435;49.472;10.940;2022-09-21T21:18:42;3.80;;;3.40;;
2854;SDS011;1435;49.472;10.940;2022-09-21T21:23:47;2.97;;;2.77;;
2854;SDS011;1435;49.472;10.940;2022-09-21T21:29:08;6.40;;;3.10;;
2854;SDS011;1435;49.472;10.940;2022-09-21T21:34:10;3.60;;;3.30;;
2854;SDS011;1435;49.472;10.940;2022-09-21T21:39:11;3.07;;;2.73;;
2854;SDS011;1435;49.472;10.940;2022-09-21T21:44:14;4.03;;;2.63;;
2854;SDS011;1435;49.472;10.940;2022-09-21T21:49:16;4.70;;;3.33;;
2854;SDS011;1435;49.472;10.940;2022-09-21T21:54:19;4.30;;;3.57;;
2854;SDS011;1435;49.472;10.940;2022-09-21T21:59:23;4.43;;;3.90;;
2854;SDS011;1435;49.472;10.940;2022-09-21T22:04:25;3.43;;;3.20;;
2854;SDS011;1435;49.472;10.940;2022-09-21T22:09:27;3.80;;;2.50;;
2854;SDS011;1435;49.472;10.940;2022-09-21T22:14:30;3.00;;;2.80;;
2854;SDS011;1435;49.472;10.940;2022-09-21T22:19:31;5.43;;;4.00;;
2854;SDS011;1435;49.472;10.940;2022-09-21T22:24:33;3.93;;;3.63;;
2854;SDS011;1435;49.472;10.940;2022-09-21T22:29:36;3.67;;;3.37;;
2854;SDS011;1435;49.472;10.940;2022-09-21T22:34:38;4.57;;;4.17;;
2854;SDS011;1435;49.472;10.940;2022-09-21T22:39:40;5.17;;;3.93;;
2854;SDS011;1435;49.472;10.940;2022-09-21T22:44:43;3.80;;;3.50;;
2854;SDS011;1435;49.472;10.940;2022-09-21T22:49:45;3.10;;;2.90;;
2854;SDS011;1435;49.472;10.940;2022-09-21T22:54:46;3.37;;;3.13;;
2854;SDS011;1435;49.472;10.940;2022-09-21T22:59:50;4.70;;;4.10;;
2854;SDS011;1435;49.472;10.940;2022-09-21T23:04:51;5.43;;;3.93;;
2854;SDS011;1435;49.472;10.940;2022-09-21T23:09:53;4.57;;;3.43;;
2854;SDS011;1435;49.472;10.940;2022-09-21T23:14:56;4.00;;;3.60;;
2854;SDS011;1435;49.472;10.940;2022-09-21T23:19:58;5.37;;;4.30;;
2854;SDS011;1435;49.472;10.940;2022-09-21T23:25:00;3.83;;;3.50;;
2854;SDS011;1435;49.472;10.940;2022-09-21T23:30:03;4.63;;;4.23;;
2854;SDS011;1435;49.472;10.940;2022-09-21T23:35:05;4.67;;;3.70;;
2854;SDS011;1435;49.472;10.940;2022-09-21T23:40:08;3.30;;;3.10;;
2854;SDS011;1435;49.472;10.940;2022-09-21T23:45:11;3.27;;;3.03;;
2854;SDS011;1435;49.472;10.940;2022-09-21T23:50:13;4.40;;;4.00;;
2854;SDS011;1435;49.472;10.940;2022-09-21T23:55:15;3.77;;;3.47;;
